sensor_id;sensor_type;location;lat;lon;timestamp;temperature;humidity
4187;DHT22;2107;52.306;10.484;2023-12-07T00:00:08;2.20;99.90
4187;DHT22;2107;52.306;10.484;2023-12-07T00:02:35;2.20;99.90
4187;DHT22;2107;52.306;10.484;2023-12-07T00:05:02;2.20;99.90
4187;DHT22;2107;52.306;10.484;2023-12-07T00:07:29;2.20;99.90
4187;DHT22;2107;52.306;10.484;2023-12-07T00:09:56;2.20;99.90
4187;DHT22;2107;52.306;10.484;2023-12-07T00:12:22;2.20;99.90
4187;DHT22;2107;52.306;10.484;2023-12-07T00:14:51;2.10;99.90
4187;DHT22;2107;52.306;10.484;2023-12-07T00:17:17;2.20;99.90
4187;DHT22;2107;52.306;10.484;2023-12-07T00:19:44;2.10;99.90
4187;DHT22;2107;52.306;10.484;2023-12-07T00:22:11;2.20;99.90
4187;DHT22;2107;52.306;10.484;2023-12-07T00:24:38;2.20;99.90
4187;DHT22;2107;52.306;10.484;2023-12-07T00:27:05;2.20;99.90
4187;DHT22;2107;52.306;10.484;2023-12-07T00:29:32;2.20;99.90
4187;DHT22;2107;52.306;10.484;2023-12-07T00:32:00;2.20;99.90
4187;DHT22;2107;52.306;10.484;2023-12-07T00:34:26;2.20;99.90
4187;DHT22;2107;52.306;10.484;2023-12-07T00:36:53;2.20;99.90
4187;DHT22;2107;52.306;10.484;2023-12-07T00:39:20;2.20;99.90
4187;DHT22;2107;52.306;10.484;2023-12-07T00:41:47;2.30;99.90
4187;DHT22;2107;52.306;10.484;2023-12-07T00:44:14;2.20;99.90
4187;DHT22;2107;52.306;10.484;2023-12-07T00:46:41;2.20;99.90
4187;DHT22;2107;52.306;10.484;2023-12-07T00:49:09;2.20;99.90
4187;DHT22;2107;52.306;10.484;2023-12-07T00:51:36;2.20;99.90
4187;DHT22;2107;52.306;10.484;2023-12-07T00:54:02;2.20;99.90
4187;DHT22;2107;52.306;10.484;2023-12-07T00:56:29;2.20;99.90
4187;DHT22;2107;52.306;10.484;2023-12-07T00:58:56;2.30;99.90
4187;DHT22;2107;52.306;10.484;2023-12-07T01:01:23;2.30;99.90
4187;DHT22;2107;52.306;10.484;2023-12-07T01:03:50;2.20;99.90
4187;DHT22;2107;52.306;10.484;2023-12-07T01:06:18;2.30;99.90
4187;DHT22;2107;52.306;10.484;2023-12-07T01:08:45;2.30;99.90
4187;DHT22;2107;52.306;10.484;2023-12-07T01:11:11;2.40;99.90
4187;DHT22;2107;52.306;10.484;2023-12-07T01:13:38;2.30;99.90
4187;DHT22;2107;52.306;10.484;2023-12-07T01:16:05;2.20;99.90
4187;DHT22;2107;52.306;10.484;2023-12-07T01:18:33;2.20;99.90
4187;DHT22;2107;52.306;10.484;2023-12-07T01:21:00;2.20;99.90
4187;DHT22;2107;52.306;10.484;2023-12-07T01:23:28;2.20;99.90
4187;DHT22;2107;52.306;10.484;2023-12-07T01:25:55;2.20;99.90
4187;DHT22;2107;52.306;10.484;2023-12-07T01:28:22;2.30;99.90
4187;DHT22;2107;52.306;10.484;2023-12-07T01:30:49;2.30;99.90
4187;DHT22;2107;52.306;10.484;2023-12-07T01:33:16;2.20;99.90
4187;DHT22;2107;52.306;10.484;2023-12-07T01:35:42;2.30;99.90
4187;DHT22;2107;52.306;10.484;2023-12-07T01:38:09;2.30;99.90
4187;DHT22;2107;52.306;10.484;2023-12-07T01:40:37;2.30;99.90
4187;DHT22;2107;52.306;10.484;2023-12-07T01:43:04;2.30;99.90
4187;DHT22;2107;52.306;10.484;2023-12-07T01:45:31;2.30;99.90
4187;DHT22;2107;52.306;10.484;2023-12-07T01:47:58;2.30;99.90
4187;DHT22;2107;52.306;10.484;2023-12-07T01:50:26;2.30;99.90
4187;DHT22;2107;52.306;10.484;2023-12-07T01:52:57;2.30;99.90
4187;DHT22;2107;52.306;10.484;2023-12-07T01:55:25;2.10;99.90
4187;DHT22;2107;52.306;10.484;2023-12-07T01:57:53;2.30;99.90
4187;DHT22;2107;52.306;10.484;2023-12-07T02:00:21;2.30;99.90
4187;DHT22;2107;52.306;10.484;2023-12-07T02:02:48;2.30;99.90
4187;DHT22;2107;52.306;10.484;2023-12-07T02:05:15;2.30;99.90
4187;DHT22;2107;52.306;10.484;2023-12-07T02:07:42;2.30;99.90
4187;DHT22;2107;52.306;10.484;2023-12-07T02:10:10;2.30;99.90
4187;DHT22;2107;52.306;10.484;2023-12-07T02:12:39;2.30;99.90
4187;DHT22;2107;52.306;10.484;2023-12-07T02:15:08;2.30;99.90
4187;DHT22;2107;52.306;10.484;2023-12-07T02:17:41;2.30;99.90
4187;DHT22;2107;52.306;10.484;2023-12-07T02:20:15;2.40;99.90
4187;DHT22;2107;52.306;10.484;2023-12-07T02:22:48;2.50;99.90
4187;DHT22;2107;52.306;10.484;2023-12-07T02:25:18;2.40;99.90
4187;DHT22;2107;52.306;10.484;2023-12-07T02:27:47;2.30;99.90
4187;DHT22;2107;52.306;10.484;2023-12-07T02:30:15;2.40;99.90
4187;DHT22;2107;52.306;10.484;2023-12-07T02:32:43;2.40;99.90
4187;DHT22;2107;52.306;10.484;2023-12-07T02:35:12;2.40;99.90
4187;DHT22;2107;52.306;10.484;2023-12-07T02:37:42;2.50;99.90
4187;DHT22;2107;52.306;10.484;2023-12-07T02:40:10;2.40;99.90
4187;DHT22;2107;52.306;10.484;2023-12-07T02:42:40;2.40;99.90
4187;DHT22;2107;52.306;10.484;2023-12-07T02:45:10;2.50;99.90
4187;DHT22;2107;52.306;10.484;2023-12-07T02:47:38;2.50;99.90
4187;DHT22;2107;52.306;10.484;2023-12-07T02:50:06;2.50;99.90
4187;DHT22;2107;52.306;10.484;2023-12-07T02:52:33;2.40;99.90
4187;DHT22;2107;52.306;10.484;2023-12-07T02:55:00;2.40;99.90
4187;DHT22;2107;52.306;10.484;2023-12-07T02:57:28;2.40;99.90
4187;DHT22;2107;52.306;10.484;2023-12-07T02:59:54;2.40;99.90
4187;DHT22;2107;52.306;10.484;2023-12-07T03:02:23;2.40;99.90
4187;DHT22;2107;52.306;10.484;2023-12-07T03:04:50;2.40;99.90
4187;DHT22;2107;52.306;10.484;2023-12-07T03:07:16;2.40;99.90
4187;DHT22;2107;52.306;10.484;2023-12-07T03:09:43;2.40;99.90
4187;DHT22;2107;52.306;10.484;2023-12-07T03:12:10;2.40;99.90
4187;DHT22;2107;52.306;10.484;2023-12-07T03:14:37;2.40;99.90
4187;DHT22;2107;52.306;10.484;2023-12-07T03:17:04;2.30;99.90
4187;DHT22;2107;52.306;10.484;2023-12-07T03:19:32;2.40;99.90
4187;DHT22;2107;52.306;10.484;2023-12-07T03:21:59;2.40;99.90
4187;DHT22;2107;52.306;10.484;2023-12-07T03:24:25;2.40;99.90
4187;DHT22;2107;52.306;10.484;2023-12-07T03:26:52;2.40;99.90
4187;DHT22;2107;52.306;10.484;2023-12-07T03:29:19;2.40;99.90
4187;DHT22;2107;52.306;10.484;2023-12-07T03:31:46;2.40;99.90
4187;DHT22;2107;52.306;10.484;2023-12-07T03:34:13;2.40;99.90
4187;DHT22;2107;52.306;10.484;2023-12-07T03:36:42;2.40;99.90
4187;DHT22;2107;52.306;10.484;2023-12-07T03:39:09;2.30;99.90
4187;DHT22;2107;52.306;10.484;2023-12-07T03:41:36;2.40;99.90
4187;DHT22;2107;52.306;10.484;2023-12-07T03:44:03;2.30;99.90
4187;DHT22;2107;52.306;10.484;2023-12-07T03:46:30;2.30;99.90
4187;DHT22;2107;52.306;10.484;2023-12-07T03:48:57;2.30;99.90
4187;DHT22;2107;52.306;10.484;2023-12-07T03:51:25;2.30;99.90
4187;DHT22;2107;52.306;10.484;2023-12-07T03:53:53;2.30;99.90
4187;DHT22;2107;52.306;10.484;2023-12-07T03:56:24;2.30;99.90
4187;DHT22;2107;52.306;10.484;2023-12-07T03:58:51;2.30;99.90
4187;DHT22;2107;52.306;10.484;2023-12-07T04:01:21;2.20;99.90
4187;DHT22;2107;52.306;10.484;2023-12-07T04:03:48;2.30;99.90
4187;DHT22;2107;52.306;10.484;2023-12-07T04:06:15;2.20;99.90
4187;DHT22;2107;52.306;10.484;2023-12-07T04:08:42;2.20;99.90
4187;DHT22;2107;52.306;10.484;2023-12-07T04:11:10;2.20;99.90
4187;DHT22;2107;52.306;10.484;2023-12-07T04:13:37;2.20;99.90
4187;DHT22;2107;52.306;10.484;2023-12-07T04:16:04;2.10;99.90
4187;DHT22;2107;52.306;10.484;2023-12-07T04:18:31;2.10;99.90
4187;DHT22;2107;52.306;10.484;2023-12-07T04:20:58;2.10;99.90
4187;DHT22;2107;52.306;10.484;2023-12-07T04:23:25;2.20;99.90
4187;DHT22;2107;52.306;10.484;2023-12-07T04:25:52;2.10;99.90
4187;DHT22;2107;52.306;10.484;2023-12-07T04:28:20;2.20;99.90
4187;DHT22;2107;52.306;10.484;2023-12-07T04:30:47;2.20;99.90
4187;DHT22;2107;52.306;10.484;2023-12-07T04:33:13;2.20;99.90
4187;DHT22;2107;52.306;10.484;2023-12-07T04:35:40;2.10;99.90
4187;DHT22;2107;52.306;10.484;2023-12-07T04:38:07;2.10;99.90
4187;DHT22;2107;52.306;10.484;2023-12-07T04:40:34;2.10;99.90
4187;DHT22;2107;52.306;10.484;2023-12-07T04:43:01;2.10;99.90
4187;DHT22;2107;52.306;10.484;2023-12-07T04:45:29;2.10;99.90
4187;DHT22;2107;52.306;10.484;2023-12-07T04:47:56;2.00;99.90
4187;DHT22;2107;52.306;10.484;2023-12-07T04:50:23;2.10;99.90
4187;DHT22;2107;52.306;10.484;2023-12-07T04:52:50;2.00;99.90
4187;DHT22;2107;52.306;10.484;2023-12-07T04:55:17;2.10;99.90
4187;DHT22;2107;52.306;10.484;2023-12-07T04:57:44;2.00;99.90
4187;DHT22;2107;52.306;10.484;2023-12-07T05:00:11;2.00;99.90
4187;DHT22;2107;52.306;10.484;2023-12-07T05:02:40;2.00;99.90
4187;DHT22;2107;52.306;10.484;2023-12-07T05:05:07;2.00;99.90
4187;DHT22;2107;52.306;10.484;2023-12-07T05:07:34;2.00;99.90
4187;DHT22;2107;52.306;10.484;2023-12-07T05:10:01;2.10;99.90
4187;DHT22;2107;52.306;10.484;2023-12-07T05:12:28;2.00;99.90
4187;DHT22;2107;52.306;10.484;2023-12-07T05:14:55;2.00;99.90
4187;DHT22;2107;52.306;10.484;2023-12-07T05:17:21;2.00;99.90
4187;DHT22;2107;52.306;10.484;2023-12-07T05:19:49;2.00;99.90
4187;DHT22;2107;52.306;10.484;2023-12-07T05:22:16;2.00;99.90
4187;DHT22;2107;52.306;10.484;2023-12-07T05:24:43;2.00;99.90
4187;DHT22;2107;52.306;10.484;2023-12-07T05:27:10;2.00;99.90
4187;DHT22;2107;52.306;10.484;2023-12-07T05:29:37;2.00;99.90
4187;DHT22;2107;52.306;10.484;2023-12-07T05:32:04;2.10;99.90
4187;DHT22;2107;52.306;10.484;2023-12-07T05:34:32;2.00;99.90
4187;DHT22;2107;52.306;10.484;2023-12-07T05:37:00;2.00;99.90
4187;DHT22;2107;52.306;10.484;2023-12-07T05:39:27;2.10;99.90
4187;DHT22;2107;52.306;10.484;2023-12-07T05:41:54;2.00;99.90
4187;DHT22;2107;52.306;10.484;2023-12-07T05:44:21;1.90;99.90
4187;DHT22;2107;52.306;10.484;2023-12-07T05:46:48;2.00;99.90
4187;DHT22;2107;52.306;10.484;2023-12-07T05:49:16;2.10;99.90
4187;DHT22;2107;52.306;10.484;2023-12-07T05:51:42;2.20;99.90
4187;DHT22;2107;52.306;10.484;2023-12-07T05:54:11;2.00;99.90
4187;DHT22;2107;52.306;10.484;2023-12-07T05:56:38;2.00;99.90
4187;DHT22;2107;52.306;10.484;2023-12-07T05:59:06;2.00;99.90
4187;DHT22;2107;52.306;10.484;2023-12-07T06:01:33;2.00;99.90
4187;DHT22;2107;52.306;10.484;2023-12-07T06:03:59;2.10;99.90
4187;DHT22;2107;52.306;10.484;2023-12-07T06:06:27;2.00;99.90
4187;DHT22;2107;52.306;10.484;2023-12-07T06:08:54;1.90;99.90
4187;DHT22;2107;52.306;10.484;2023-12-07T06:11:22;1.90;99.90
4187;DHT22;2107;52.306;10.484;2023-12-07T06:13:49;2.00;99.90
4187;DHT22;2107;52.306;10.484;2023-12-07T06:16:15;1.90;99.90
4187;DHT22;2107;52.306;10.484;2023-12-07T06:18:44;1.90;99.90
4187;DHT22;2107;52.306;10.484;2023-12-07T06:21:13;2.00;99.90
4187;DHT22;2107;52.306;10.484;2023-12-07T06:23:40;2.00;99.90
4187;DHT22;2107;52.306;10.484;2023-12-07T06:26:07;2.30;99.90
4187;DHT22;2107;52.306;10.484;2023-12-07T06:28:35;2.00;99.90
4187;DHT22;2107;52.306;10.484;2023-12-07T06:31:05;1.90;99.90
4187;DHT22;2107;52.306;10.484;2023-12-07T06:33:33;1.90;99.90
4187;DHT22;2107;52.306;10.484;2023-12-07T06:36:00;1.90;99.90
4187;DHT22;2107;52.306;10.484;2023-12-07T06:38:27;2.00;99.90
4187;DHT22;2107;52.306;10.484;2023-12-07T06:40:54;2.00;99.90
4187;DHT22;2107;52.306;10.484;2023-12-07T06:43:21;2.10;99.90
4187;DHT22;2107;52.306;10.484;2023-12-07T06:45:50;2.10;99.90
4187;DHT22;2107;52.306;10.484;2023-12-07T06:48:17;2.20;99.90
4187;DHT22;2107;52.306;10.484;2023-12-07T06:50:44;2.30;99.90
4187;DHT22;2107;52.306;10.484;2023-12-07T06:53:11;2.30;99.90
4187;DHT22;2107;52.306;10.484;2023-12-07T06:55:38;2.30;99.90
4187;DHT22;2107;52.306;10.484;2023-12-07T06:58:04;2.30;99.90
4187;DHT22;2107;52.306;10.484;2023-12-07T07:00:31;2.20;99.90
4187;DHT22;2107;52.306;10.484;2023-12-07T07:03:00;2.40;99.90
4187;DHT22;2107;52.306;10.484;2023-12-07T07:05:27;2.20;99.90
4187;DHT22;2107;52.306;10.484;2023-12-07T07:07:54;2.20;99.90
4187;DHT22;2107;52.306;10.484;2023-12-07T07:10:21;2.20;99.90
4187;DHT22;2107;52.306;10.484;2023-12-07T07:12:48;2.30;99.90
4187;DHT22;2107;52.306;10.484;2023-12-07T07:15:15;2.40;99.90
4187;DHT22;2107;52.306;10.484;2023-12-07T07:17:42;2.50;99.90
4187;DHT22;2107;52.306;10.484;2023-12-07T07:20:12;2.60;99.90
4187;DHT22;2107;52.306;10.484;2023-12-07T07:22:39;2.50;99.90
4187;DHT22;2107;52.306;10.484;2023-12-07T07:25:06;2.50;99.90
4187;DHT22;2107;52.306;10.484;2023-12-07T07:27:33;2.40;99.90
4187;DHT22;2107;52.306;10.484;2023-12-07T07:30:00;2.20;99.90
4187;DHT22;2107;52.306;10.484;2023-12-07T07:32:29;2.20;99.90
4187;DHT22;2107;52.306;10.484;2023-12-07T07:34:56;2.10;99.90
4187;DHT22;2107;52.306;10.484;2023-12-07T07:37:25;2.00;99.90
4187;DHT22;2107;52.306;10.484;2023-12-07T07:39:52;2.10;99.90
4187;DHT22;2107;52.306;10.484;2023-12-07T07:42:18;2.00;99.90
4187;DHT22;2107;52.306;10.484;2023-12-07T07:44:45;2.00;99.90
4187;DHT22;2107;52.306;10.484;2023-12-07T07:47:12;2.00;99.90
4187;DHT22;2107;52.306;10.484;2023-12-07T07:49:39;2.10;99.90
4187;DHT22;2107;52.306;10.484;2023-12-07T07:52:06;2.00;99.90
4187;DHT22;2107;52.306;10.484;2023-12-07T07:54:34;2.00;99.90
4187;DHT22;2107;52.306;10.484;2023-12-07T07:57:02;2.00;99.90
4187;DHT22;2107;52.306;10.484;2023-12-07T07:59:30;2.00;99.90
4187;DHT22;2107;52.306;10.484;2023-12-07T08:01:57;2.00;99.90
4187;DHT22;2107;52.306;10.484;2023-12-07T08:04:24;2.00;99.90
4187;DHT22;2107;52.306;10.484;2023-12-07T08:06:51;2.10;99.90
4187;DHT22;2107;52.306;10.484;2023-12-07T08:09:17;2.10;99.90
4187;DHT22;2107;52.306;10.484;2023-12-07T08:11:46;2.20;99.90
4187;DHT22;2107;52.306;10.484;2023-12-07T08:14:12;2.30;99.90
4187;DHT22;2107;52.306;10.484;2023-12-07T08:16:42;2.30;99.90
4187;DHT22;2107;52.306;10.484;2023-12-07T08:19:09;2.30;99.90
4187;DHT22;2107;52.306;10.484;2023-12-07T08:21:36;2.30;99.90
4187;DHT22;2107;52.306;10.484;2023-12-07T08:24:03;2.30;99.90
4187;DHT22;2107;52.306;10.484;2023-12-07T08:26:31;2.20;99.90
4187;DHT22;2107;52.306;10.484;2023-12-07T08:28:59;2.20;99.90
4187;DHT22;2107;52.306;10.484;2023-12-07T08:31:26;2.30;99.90
4187;DHT22;2107;52.306;10.484;2023-12-07T08:33:53;2.50;99.90
4187;DHT22;2107;52.306;10.484;2023-12-07T08:36:19;2.50;99.90
4187;DHT22;2107;52.306;10.484;2023-12-07T08:38:46;2.60;99.90
4187;DHT22;2107;52.306;10.484;2023-12-07T08:41:13;2.50;99.90
4187;DHT22;2107;52.306;10.484;2023-12-07T08:43:40;2.50;99.90
4187;DHT22;2107;52.306;10.484;2023-12-07T08:46:08;2.50;99.90
4187;DHT22;2107;52.306;10.484;2023-12-07T08:48:36;2.50;99.90
4187;DHT22;2107;52.306;10.484;2023-12-07T08:51:03;2.50;99.90
4187;DHT22;2107;52.306;10.484;2023-12-07T08:53:30;2.60;99.90
4187;DHT22;2107;52.306;10.484;2023-12-07T08:55:57;2.70;99.90
4187;DHT22;2107;52.306;10.484;2023-12-07T08:58:23;2.70;99.90
4187;DHT22;2107;52.306;10.484;2023-12-07T09:00:50;2.70;99.90
4187;DHT22;2107;52.306;10.484;2023-12-07T09:03:19;2.80;99.90
4187;DHT22;2107;52.306;10.484;2023-12-07T09:05:45;2.90;99.90
4187;DHT22;2107;52.306;10.484;2023-12-07T09:08:12;3.00;99.90
4187;DHT22;2107;52.306;10.484;2023-12-07T09:10:39;2.90;99.90
4187;DHT22;2107;52.306;10.484;2023-12-07T09:13:06;3.00;99.90
4187;DHT22;2107;52.306;10.484;2023-12-07T09:15:33;3.10;99.90
4187;DHT22;2107;52.306;10.484;2023-12-07T09:18:02;3.10;99.90
4187;DHT22;2107;52.306;10.484;2023-12-07T09:20:31;3.20;99.90
4187;DHT22;2107;52.306;10.484;2023-12-07T09:22:57;3.30;99.90
4187;DHT22;2107;52.306;10.484;2023-12-07T09:25:24;3.10;99.90
4187;DHT22;2107;52.306;10.484;2023-12-07T09:27:53;3.10;99.90
4187;DHT22;2107;52.306;10.484;2023-12-07T09:30:20;3.30;99.90
4187;DHT22;2107;52.306;10.484;2023-12-07T09:32:47;3.40;99.90
4187;DHT22;2107;52.306;10.484;2023-12-07T09:35:14;3.30;99.90
4187;DHT22;2107;52.306;10.484;2023-12-07T09:37:46;3.30;99.90
4187;DHT22;2107;52.306;10.484;2023-12-07T09:40:17;3.40;99.90
4187;DHT22;2107;52.306;10.484;2023-12-07T09:42:45;3.50;99.90
4187;DHT22;2107;52.306;10.484;2023-12-07T09:45:12;3.40;99.90
4187;DHT22;2107;52.306;10.484;2023-12-07T09:47:40;3.40;99.90
4187;DHT22;2107;52.306;10.484;2023-12-07T09:50:09;3.40;99.90
4187;DHT22;2107;52.306;10.484;2023-12-07T09:52:38;3.40;99.90
4187;DHT22;2107;52.306;10.484;2023-12-07T09:55:07;3.40;99.90
4187;DHT22;2107;52.306;10.484;2023-12-07T09:57:37;3.50;99.90
4187;DHT22;2107;52.306;10.484;2023-12-07T10:00:05;3.40;99.90
4187;DHT22;2107;52.306;10.484;2023-12-07T10:02:36;3.50;99.90
4187;DHT22;2107;52.306;10.484;2023-12-07T10:05:05;3.60;99.90
4187;DHT22;2107;52.306;10.484;2023-12-07T10:07:33;3.50;99.90
4187;DHT22;2107;52.306;10.484;2023-12-07T10:10:02;3.60;99.90
4187;DHT22;2107;52.306;10.484;2023-12-07T10:12:30;3.60;99.90
4187;DHT22;2107;52.306;10.484;2023-12-07T10:14:59;3.60;99.90
4187;DHT22;2107;52.306;10.484;2023-12-07T10:17:43;3.60;99.90
4187;DHT22;2107;52.306;10.484;2023-12-07T10:20:12;3.60;99.90
4187;DHT22;2107;52.306;10.484;2023-12-07T10:22:39;3.70;99.90
4187;DHT22;2107;52.306;10.484;2023-12-07T10:25:07;3.70;99.90
4187;DHT22;2107;52.306;10.484;2023-12-07T10:27:38;3.70;99.90
4187;DHT22;2107;52.306;10.484;2023-12-07T10:30:07;3.80;99.90
4187;DHT22;2107;52.306;10.484;2023-12-07T10:32:36;3.80;99.90
4187;DHT22;2107;52.306;10.484;2023-12-07T10:35:04;4.00;99.90
4187;DHT22;2107;52.306;10.484;2023-12-07T10:37:32;3.90;99.90
4187;DHT22;2107;52.306;10.484;2023-12-07T10:39:59;3.90;99.90
4187;DHT22;2107;52.306;10.484;2023-12-07T10:42:26;3.80;99.90
4187;DHT22;2107;52.306;10.484;2023-12-07T10:44:58;3.80;99.90
4187;DHT22;2107;52.306;10.484;2023-12-07T10:47:28;3.90;99.90
4187;DHT22;2107;52.306;10.484;2023-12-07T10:49:57;3.80;99.90
4187;DHT22;2107;52.306;10.484;2023-12-07T10:52:27;3.90;99.90
4187;DHT22;2107;52.306;10.484;2023-12-07T10:55:02;3.90;99.90
4187;DHT22;2107;52.306;10.484;2023-12-07T10:57:29;4.10;99.90
4187;DHT22;2107;52.306;10.484;2023-12-07T11:00:00;4.20;99.90
4187;DHT22;2107;52.306;10.484;2023-12-07T11:02:28;4.30;99.90
4187;DHT22;2107;52.306;10.484;2023-12-07T11:04:56;4.40;99.90
4187;DHT22;2107;52.306;10.484;2023-12-07T11:07:25;4.60;99.90
4187;DHT22;2107;52.306;10.484;2023-12-07T11:10:03;4.80;99.90
4187;DHT22;2107;52.306;10.484;2023-12-07T11:12:36;4.90;99.90
4187;DHT22;2107;52.306;10.484;2023-12-07T11:15:07;4.60;99.90
4187;DHT22;2107;52.306;10.484;2023-12-07T11:17:49;4.60;99.90
4187;DHT22;2107;52.306;10.484;2023-12-07T11:20:19;4.50;99.90
4187;DHT22;2107;52.306;10.484;2023-12-07T11:22:47;4.50;99.90
4187;DHT22;2107;52.306;10.484;2023-12-07T11:25:15;4.40;99.90
4187;DHT22;2107;52.306;10.484;2023-12-07T11:27:44;4.30;99.90
4187;DHT22;2107;52.306;10.484;2023-12-07T11:30:14;4.50;99.90
4187;DHT22;2107;52.306;10.484;2023-12-07T11:32:42;4.50;99.90
4187;DHT22;2107;52.306;10.484;2023-12-07T11:35:12;4.40;99.90
4187;DHT22;2107;52.306;10.484;2023-12-07T11:38:01;4.40;99.90
4187;DHT22;2107;52.306;10.484;2023-12-07T11:40:29;4.30;99.90
4187;DHT22;2107;52.306;10.484;2023-12-07T11:42:57;4.60;99.90
4187;DHT22;2107;52.306;10.484;2023-12-07T11:45:39;4.40;99.90
4187;DHT22;2107;52.306;10.484;2023-12-07T11:48:08;4.40;99.90
4187;DHT22;2107;52.306;10.484;2023-12-07T11:50:35;4.40;99.90
4187;DHT22;2107;52.306;10.484;2023-12-07T11:53:02;4.50;99.90
4187;DHT22;2107;52.306;10.484;2023-12-07T11:55:31;4.60;99.90
4187;DHT22;2107;52.306;10.484;2023-12-07T11:57:58;4.70;99.90
4187;DHT22;2107;52.306;10.484;2023-12-07T12:00:26;4.60;99.90
4187;DHT22;2107;52.306;10.484;2023-12-07T12:02:56;4.60;99.90
4187;DHT22;2107;52.306;10.484;2023-12-07T12:05:23;4.50;99.90
4187;DHT22;2107;52.306;10.484;2023-12-07T12:07:50;4.70;99.90
4187;DHT22;2107;52.306;10.484;2023-12-07T12:10:17;4.50;99.90
4187;DHT22;2107;52.306;10.484;2023-12-07T12:12:45;4.70;99.90
4187;DHT22;2107;52.306;10.484;2023-12-07T12:15:11;4.90;99.90
4187;DHT22;2107;52.306;10.484;2023-12-07T12:17:38;4.80;99.90
4187;DHT22;2107;52.306;10.484;2023-12-07T12:20:07;4.80;99.90
4187;DHT22;2107;52.306;10.484;2023-12-07T12:22:36;4.80;99.90
4187;DHT22;2107;52.306;10.484;2023-12-07T12:25:05;5.00;99.90
4187;DHT22;2107;52.306;10.484;2023-12-07T12:27:32;4.90;99.90
4187;DHT22;2107;52.306;10.484;2023-12-07T12:30:01;4.90;99.90
4187;DHT22;2107;52.306;10.484;2023-12-07T12:32:28;4.80;99.90
4187;DHT22;2107;52.306;10.484;2023-12-07T12:34:54;4.90;99.90
4187;DHT22;2107;52.306;10.484;2023-12-07T12:37:23;4.90;99.90
4187;DHT22;2107;52.306;10.484;2023-12-07T12:39:50;4.80;99.90
4187;DHT22;2107;52.306;10.484;2023-12-07T12:42:17;4.70;99.90
4187;DHT22;2107;52.306;10.484;2023-12-07T12:44:44;4.60;99.90
4187;DHT22;2107;52.306;10.484;2023-12-07T12:47:11;4.40;99.90
4187;DHT22;2107;52.306;10.484;2023-12-07T12:49:38;4.40;99.90
4187;DHT22;2107;52.306;10.484;2023-12-07T12:52:09;4.50;99.90
4187;DHT22;2107;52.306;10.484;2023-12-07T12:54:38;4.40;99.90
4187;DHT22;2107;52.306;10.484;2023-12-07T12:57:06;4.40;99.90
4187;DHT22;2107;52.306;10.484;2023-12-07T12:59:33;4.50;99.90
4187;DHT22;2107;52.306;10.484;2023-12-07T13:02:00;4.50;99.90
4187;DHT22;2107;52.306;10.484;2023-12-07T13:04:27;4.40;99.90
4187;DHT22;2107;52.306;10.484;2023-12-07T13:06:54;4.40;99.90
4187;DHT22;2107;52.306;10.484;2023-12-07T13:09:21;4.50;99.90
4187;DHT22;2107;52.306;10.484;2023-12-07T13:11:49;4.70;99.90
4187;DHT22;2107;52.306;10.484;2023-12-07T13:14:16;4.70;99.90
4187;DHT22;2107;52.306;10.484;2023-12-07T13:16:43;4.50;99.90
4187;DHT22;2107;52.306;10.484;2023-12-07T13:19:09;4.40;99.90
4187;DHT22;2107;52.306;10.484;2023-12-07T13:21:36;4.20;99.90
4187;DHT22;2107;52.306;10.484;2023-12-07T13:24:04;4.10;99.90
4187;DHT22;2107;52.306;10.484;2023-12-07T13:26:33;4.10;99.90
4187;DHT22;2107;52.306;10.484;2023-12-07T13:29:01;4.00;99.90
4187;DHT22;2107;52.306;10.484;2023-12-07T13:31:28;4.10;99.90
4187;DHT22;2107;52.306;10.484;2023-12-07T13:33:55;4.10;99.90
4187;DHT22;2107;52.306;10.484;2023-12-07T13:36:22;4.10;99.90
4187;DHT22;2107;52.306;10.484;2023-12-07T13:38:51;4.10;99.90
4187;DHT22;2107;52.306;10.484;2023-12-07T13:41:18;4.00;99.90
4187;DHT22;2107;52.306;10.484;2023-12-07T13:43:45;3.90;99.90
4187;DHT22;2107;52.306;10.484;2023-12-07T13:46:15;4.00;99.90
4187;DHT22;2107;52.306;10.484;2023-12-07T13:48:42;3.90;99.90
4187;DHT22;2107;52.306;10.484;2023-12-07T13:51:09;3.90;99.90
4187;DHT22;2107;52.306;10.484;2023-12-07T13:53:36;4.20;99.90
4187;DHT22;2107;52.306;10.484;2023-12-07T13:56:04;3.80;99.90
4187;DHT22;2107;52.306;10.484;2023-12-07T13:58:31;3.80;99.90
4187;DHT22;2107;52.306;10.484;2023-12-07T14:00:58;3.80;99.90
4187;DHT22;2107;52.306;10.484;2023-12-07T14:03:28;3.90;99.90
4187;DHT22;2107;52.306;10.484;2023-12-07T14:05:58;4.10;99.90
4187;DHT22;2107;52.306;10.484;2023-12-07T14:08:26;4.20;99.90
4187;DHT22;2107;52.306;10.484;2023-12-07T14:10:52;4.30;99.90
4187;DHT22;2107;52.306;10.484;2023-12-07T14:13:19;4.30;99.90
4187;DHT22;2107;52.306;10.484;2023-12-07T14:15:46;4.20;99.90
4187;DHT22;2107;52.306;10.484;2023-12-07T14:18:13;4.00;99.90
4187;DHT22;2107;52.306;10.484;2023-12-07T14:20:42;3.90;99.90
4187;DHT22;2107;52.306;10.484;2023-12-07T14:23:09;3.70;99.90
4187;DHT22;2107;52.306;10.484;2023-12-07T14:25:36;3.60;99.90
4187;DHT22;2107;52.306;10.484;2023-12-07T14:28:05;3.50;99.90
4187;DHT22;2107;52.306;10.484;2023-12-07T14:30:32;3.50;99.90
4187;DHT22;2107;52.306;10.484;2023-12-07T14:33:01;3.60;99.90
4187;DHT22;2107;52.306;10.484;2023-12-07T14:35:29;3.70;99.90
4187;DHT22;2107;52.306;10.484;2023-12-07T14:37:57;3.60;99.90
4187;DHT22;2107;52.306;10.484;2023-12-07T14:40:24;3.50;99.90
4187;DHT22;2107;52.306;10.484;2023-12-07T14:42:51;3.50;99.90
4187;DHT22;2107;52.306;10.484;2023-12-07T14:45:18;3.40;99.90
4187;DHT22;2107;52.306;10.484;2023-12-07T14:47:46;3.40;99.90
4187;DHT22;2107;52.306;10.484;2023-12-07T14:50:13;3.40;99.90
4187;DHT22;2107;52.306;10.484;2023-12-07T14:52:40;3.30;99.90
4187;DHT22;2107;52.306;10.484;2023-12-07T14:55:08;3.40;99.90
4187;DHT22;2107;52.306;10.484;2023-12-07T14:57:35;3.40;99.90
4187;DHT22;2107;52.306;10.484;2023-12-07T15:00:02;3.30;99.90
4187;DHT22;2107;52.306;10.484;2023-12-07T15:02:31;3.30;99.90
4187;DHT22;2107;52.306;10.484;2023-12-07T15:04:57;3.40;99.90
4187;DHT22;2107;52.306;10.484;2023-12-07T15:07:24;3.40;99.90
4187;DHT22;2107;52.306;10.484;2023-12-07T15:09:51;3.40;99.90
4187;DHT22;2107;52.306;10.484;2023-12-07T15:12:19;3.40;99.90
4187;DHT22;2107;52.306;10.484;2023-12-07T15:14:46;3.30;99.90
4187;DHT22;2107;52.306;10.484;2023-12-07T15:17:14;3.20;99.90
4187;DHT22;2107;52.306;10.484;2023-12-07T15:19:41;3.20;99.90
4187;DHT22;2107;52.306;10.484;2023-12-07T15:22:08;3.30;99.90
4187;DHT22;2107;52.306;10.484;2023-12-07T15:24:35;3.20;99.90
4187;DHT22;2107;52.306;10.484;2023-12-07T15:27:02;3.20;99.90
4187;DHT22;2107;52.306;10.484;2023-12-07T15:29:31;3.20;99.90
4187;DHT22;2107;52.306;10.484;2023-12-07T15:32:02;3.20;99.90
4187;DHT22;2107;52.306;10.484;2023-12-07T15:34:29;3.20;99.90
4187;DHT22;2107;52.306;10.484;2023-12-07T15:36:56;3.20;99.90
4187;DHT22;2107;52.306;10.484;2023-12-07T15:39:23;3.20;99.90
4187;DHT22;2107;52.306;10.484;2023-12-07T15:41:50;3.20;99.90
4187;DHT22;2107;52.306;10.484;2023-12-07T15:44:17;3.20;99.90
4187;DHT22;2107;52.306;10.484;2023-12-07T15:46:45;3.10;99.90
4187;DHT22;2107;52.306;10.484;2023-12-07T15:49:12;3.10;99.90
4187;DHT22;2107;52.306;10.484;2023-12-07T15:51:39;3.20;99.90
4187;DHT22;2107;52.306;10.484;2023-12-07T15:54:08;3.10;99.90
4187;DHT22;2107;52.306;10.484;2023-12-07T15:56:39;3.00;99.90
4187;DHT22;2107;52.306;10.484;2023-12-07T15:59:06;3.10;99.90
4187;DHT22;2107;52.306;10.484;2023-12-07T16:01:33;3.00;99.90
4187;DHT22;2107;52.306;10.484;2023-12-07T16:04:02;3.00;99.90